Time;durP1;ratioP1;P1;durP2;ratioP2;P2;SDS_P1;SDS_P2;PMS_P1;PMS_P2;Temp;Humidity;BMP_temperature;BMP_pressure;BME280_temperature;BME280_humidity;BME280_pressure;Samples;Min_cycle;Max_cycle;Signal;HPM_P1;HPM_P2
2023/08/22 00:00:27;;;;;;;14.38;3.58;;;;;;;-144.73;100.00;54329.72;4979969;28;20039;-72
2023/08/22 00:02:54;;;;;;;9.98;4.10;;;;;;;-144.73;100.00;54335.88;4979375;28;20038;-72
2023/08/22 00:05:19;;;;;;;8.23;4.03;;;;;;;-144.73;100.00;54321.50;4970829;28;20545;-72
2023/08/22 00:07:45;;;;;;;8.77;3.70;;;;;;;-144.73;100.00;54342.03;4979051;28;20022;-72
2023/08/22 00:10:10;;;;;;;11.68;4.00;;;;;;;-144.73;100.00;54407.69;4984029;28;20042;-73
2023/08/22 00:12:36;;;;;;;10.75;4.38;;;;;;;-144.73;100.00;54335.88;4982800;28;20026;-73
2023/08/22 00:15:04;;;;;;;13.25;3.45;;;;;;;-144.73;100.00;54378.97;4990373;28;20049;-72
2023/08/22 00:17:31;;;;;;;9.15;3.38;;;;;;;-144.73;100.00;54337.91;4986214;28;20124;-73
2023/08/22 00:19:56;;;;;;;8.52;3.67;;;;;;;-144.73;100.00;54331.75;4986465;28;20038;-72
2023/08/22 00:22:21;;;;;;;9.38;3.38;;;;;;;-144.73;100.00;54333.81;4986439;28;20038;-72
2023/08/22 00:24:47;;;;;;;8.27;3.78;;;;;;;-144.73;100.00;54323.53;4972090;28;20034;-72
2023/08/22 00:27:12;;;;;;;16.85;4.30;;;;;;;-144.73;100.00;54329.72;4978241;28;20030;-72
2023/08/22 00:29:37;;;;;;;9.50;3.65;;;;;;;-144.73;100.00;54329.72;4978794;28;20031;-71
2023/08/22 00:32:03;;;;;;;14.32;3.75;;;;;;;-144.73;100.00;54323.53;4980151;28;20027;-72
2023/08/22 00:34:28;;;;;;;5.47;3.08;;;;;;;-144.73;100.00;54362.53;4974253;28;20026;-73
2023/08/22 00:36:54;;;;;;;8.23;3.30;;;;;;;-144.73;100.00;54354.34;4974736;28;20031;-72
2023/08/22 00:39:19;;;;;;;8.25;3.85;;;;;;;-144.73;100.00;54352.28;4990297;28;20023;-72
2023/08/22 00:41:45;;;;;;;6.55;3.35;;;;;;;-144.73;100.00;54378.97;4974076;28;20032;-72
2023/08/22 00:44:10;;;;;;;13.10;3.22;;;;;;;-144.73;100.00;54389.22;4990024;28;20037;-72
2023/08/22 00:46:35;;;;;;;9.88;3.67;;;;;;;-144.73;100.00;54378.97;4974304;28;20030;-73
2023/08/22 00:49:04;;;;;;;9.63;3.10;;;;;;;-144.73;100.00;54374.84;4983220;28;20022;-72
2023/08/22 00:51:30;;;;;;;14.00;3.75;;;;;;;-144.73;100.00;54358.44;5014051;28;20045;-72
2023/08/22 00:53:56;;;;;;;13.00;3.63;;;;;;;-144.73;100.00;54374.84;5013642;28;20051;-72
2023/08/22 00:56:22;;;;;;;9.20;2.72;;;;;;;-144.73;100.00;54376.91;4973831;28;20066;-72
2023/08/22 00:58:48;;;;;;;8.18;3.25;;;;;;;-144.73;100.00;54360.50;4989758;28;20172;-72
2023/08/22 01:01:14;;;;;;;7.85;3.40;;;;;;;-144.73;100.00;54362.53;5010415;28;20149;-71
2023/08/22 01:03:40;;;;;;;10.52;3.35;;;;;;;-144.73;100.00;54356.38;4993318;28;20037;-72
2023/08/22 01:06:27;;;;;;;6.30;3.33;;;;;;;-144.73;100.00;54358.44;4993091;28;20030;-72
2023/08/22 01:09:02;;;;;;;13.68;3.97;;;;;;;-144.73;100.00;54337.91;5010221;28;20034;-72
2023/08/22 01:11:49;;;;;;;7.60;3.50;;;;;;;-144.73;100.00;54358.44;5004493;28;20109;-71
2023/08/22 01:14:19;;;;;;;10.40;3.60;;;;;;;-144.73;100.00;54346.13;4993820;28;20030;-73
2023/08/22 01:16:47;;;;;;;11.00;3.15;;;;;;;-144.73;100.00;54370.75;5002345;28;20026;-72
2023/08/22 01:19:13;;;;;;;5.68;3.17;;;;;;;-144.73;100.00;54370.75;5007124;28;20028;-72
2023/08/22 01:21:52;;;;;;;5.75;3.25;;;;;;;-144.73;100.00;54370.75;4974717;28;20125;-72
2023/08/22 01:24:19;;;;;;;8.35;3.67;;;;;;;-144.73;100.00;54350.22;4992036;28;20042;-72
2023/08/22 01:26:46;;;;;;;7.65;3.15;;;;;;;-144.73;100.00;54387.19;4985466;28;20121;-72
2023/08/22 01:29:16;;;;;;;10.88;3.67;;;;;;;-144.73;100.00;54407.69;4991172;28;20026;-72
2023/08/22 01:31:56;;;;;;;14.50;3.35;;;;;;;-144.73;100.00;54366.66;4988554;28;20033;-73
2023/08/22 01:34:29;;;;;;;8.55;3.55;;;;;;;-144.73;100.00;54374.84;4984604;28;20026;-72
2023/08/22 01:36:58;;;;;;;12.65;3.25;;;;;;;-144.73;100.00;54354.34;4992721;28;20080;-73
2023/08/22 01:39:25;;;;;;;11.15;6.45;;;;;;;-144.73;100.00;54342.03;4992288;28;20085;-73
2023/08/22 01:41:50;;;;;;;19.35;9.95;;;;;;;-144.73;100.00;54383.06;4992897;28;20417;-73
2023/08/22 01:44:16;;;;;;;13.48;6.32;;;;;;;-144.73;100.00;54321.50;4991859;28;20034;-73
2023/08/22 01:46:41;;;;;;;8.50;3.22;;;;;;;-144.73;100.00;54366.66;4987533;28;20019;-73
2023/08/22 01:49:07;;;;;;;8.68;3.50;;;;;;;-144.73;100.00;54346.13;4972614;28;20066;-72
2023/08/22 01:51:32;;;;;;;5.10;3.00;;;;;;;-144.73;100.00;54370.75;4973596;28;20109;-73
2023/08/22 01:53:57;;;;;;;8.80;3.22;;;;;;;-144.73;100.00;54350.22;4973555;28;20033;-73
2023/08/22 01:56:23;;;;;;;7.45;4.05;;;;;;;-144.73;100.00;54387.19;4972474;28;20042;-72
2023/08/22 01:58:48;;;;;;;6.50;3.28;;;;;;;-144.73;100.00;54360.50;4972720;28;20026;-73
2023/08/22 02:01:14;;;;;;;6.40;3.10;;;;;;;-144.73;100.00;54366.66;4967115;28;20082;-73
2023/08/22 02:03:41;;;;;;;8.35;3.13;;;;;;;-144.73;100.00;54356.38;4984307;28;20027;-73
2023/08/22 02:06:06;;;;;;;10.30;2.90;;;;;;;-144.73;100.00;54337.91;4974204;28;20116;-72
2023/08/22 02:08:31;;;;;;;10.93;3.45;;;;;;;-144.73;100.00;54387.19;4988928;28;20537;-72
2023/08/22 02:10:56;;;;;;;5.95;2.92;;;;;;;-144.73;100.00;54356.38;4980199;28;20085;-73
2023/08/22 02:13:22;;;;;;;15.77;3.67;;;;;;;-144.73;100.00;54374.84;4980936;28;20987;-73
2023/08/22 02:15:47;;;;;;;11.57;3.08;;;;;;;-144.73;100.00;54350.22;4976597;28;20122;-72
2023/08/22 02:18:13;;;;;;;6.60;3.05;;;;;;;-144.73;100.00;54383.06;4982248;28;20054;-72
2023/08/22 02:20:38;;;;;;;7.70;3.42;;;;;;;-144.73;100.00;54337.91;4978250;28;20141;-72
2023/08/22 02:23:04;;;;;;;10.32;3.30;;;;;;;-144.73;100.00;54383.06;4973066;28;20050;-73
2023/08/22 02:25:32;;;;;;;13.00;3.95;;;;;;;-144.73;100.00;54346.13;4964944;28;20110;-74
2023/08/22 02:27:57;;;;;;;9.27;3.30;;;;;;;-144.73;100.00;54374.84;4964492;28;20023;-73
2023/08/22 02:30:23;;;;;;;14.13;3.53;;;;;;;-144.73;100.00;54311.22;4971809;28;20122;-73
2023/08/22 02:32:48;;;;;;;6.57;3.05;;;;;;;-144.73;100.00;54378.97;4984889;28;20049;-74
2023/08/22 02:35:13;;;;;;;7.13;3.55;;;;;;;-144.73;100.00;54374.84;4980379;28;20031;-73
2023/08/22 02:37:39;;;;;;;10.07;2.92;;;;;;;-144.73;100.00;54407.69;4986994;28;20026;-74
2023/08/22 02:40:06;;;;;;;9.50;3.03;;;;;;;-144.73;100.00;54368.69;4970578;28;20035;-73
2023/08/22 02:42:32;;;;;;;7.60;3.35;;;;;;;-144.73;100.00;54358.44;4970785;28;20030;-73
2023/08/22 02:44:58;;;;;;;12.25;2.97;;;;;;;-144.73;100.00;54407.69;4981836;28;20097;-73
2023/08/22 02:47:23;;;;;;;6.00;2.70;;;;;;;-144.73;100.00;54342.03;4974250;28;20038;-74
2023/08/22 02:49:49;;;;;;;5.45;3.03;;;;;;;-144.73;100.00;54378.97;4973169;28;20042;-72
2023/08/22 02:52:14;;;;;;;9.52;3.50;;;;;;;-144.73;100.00;54374.84;4977868;28;20023;-72
2023/08/22 02:54:39;;;;;;;12.73;3.35;;;;;;;-144.73;100.00;54383.06;4983117;28;20034;-72
2023/08/22 02:57:04;;;;;;;7.80;2.80;;;;;;;-144.73;100.00;54337.91;4972493;28;20026;-72
2023/08/22 02:59:30;;;;;;;6.40;3.10;;;;;;;-144.73;100.00;54385.13;4977631;28;20098;-73
2023/08/22 03:01:55;;;;;;;9.30;2.42;;;;;;;-144.73;100.00;54391.28;4978258;28;20159;-73
2023/08/22 03:04:21;;;;;;;6.82;2.78;;;;;;;-144.73;100.00;54374.84;4988996;28;20030;-73
2023/08/22 03:06:46;;;;;;;14.88;3.22;;;;;;;-144.73;100.00;54358.44;4983300;28;20034;-73
2023/08/22 03:09:12;;;;;;;6.63;2.70;;;;;;;-144.73;100.00;54378.97;4976888;28;20058;-73
2023/08/22 03:11:37;;;;;;;11.10;3.10;;;;;;;-144.73;100.00;54370.75;4973519;28;20109;-73
2023/08/22 03:14:02;;;;;;;11.60;2.92;;;;;;;-144.73;100.00;54364.59;4974346;28;20096;-72
2023/08/22 03:16:28;;;;;;;6.60;2.92;;;;;;;-144.73;100.00;54387.19;4989531;28;20105;-72
2023/08/22 03:18:54;;;;;;;7.50;2.42;;;;;;;-144.73;100.00;54333.81;4978815;28;20026;-73
2023/08/22 03:21:19;;;;;;;7.03;2.65;;;;;;;-144.73;100.00;54370.75;4985094;28;20046;-74
2023/08/22 03:23:44;;;;;;;7.30;3.05;;;;;;;-144.73;100.00;54342.03;4982242;28;20057;-73
2023/08/22 03:26:13;;;;;;;8.02;2.80;;;;;;;-144.73;100.00;54374.84;4977523;28;20035;-75
2023/08/22 03:28:39;;;;;;;6.00;2.70;;;;;;;-144.73;100.00;54374.84;4982602;28;20053;-74
2023/08/22 03:31:05;;;;;;;5.18;2.58;;;;;;;-144.73;100.00;54358.44;4977828;28;20027;-73
2023/08/22 03:33:31;;;;;;;13.02;2.78;;;;;;;-144.73;100.00;54358.44;4971577;28;20027;-74
2023/08/22 03:35:57;;;;;;;8.90;2.60;;;;;;;-144.73;100.00;54370.75;4969798;28;20035;-74
2023/08/22 03:38:23;;;;;;;9.30;3.00;;;;;;;-144.73;100.00;54358.44;4971046;28;20018;-73
2023/08/22 03:40:49;;;;;;;8.80;2.95;;;;;;;-144.73;100.00;54370.75;4969558;28;20067;-72
2023/08/22 03:43:16;;;;;;;12.70;3.53;;;;;;;-144.73;100.00;54317.38;4974105;28;20054;-73
2023/08/22 03:45:43;;;;;;;8.68;2.85;;;;;;;-144.73;100.00;54360.50;4983642;28;20053;-73
2023/08/22 03:48:09;;;;;;;10.18;3.10;;;;;;;-144.73;100.00;54329.72;4974140;28;20445;-73
2023/08/22 03:50:34;;;;;;;6.70;2.65;;;;;;;-144.73;100.00;54407.69;4975604;28;20107;-73
2023/08/22 03:52:59;;;;;;;13.65;2.90;;;;;;;-144.73;100.00;54393.34;4970947;28;20113;-73
2023/08/22 03:55:25;;;;;;;8.43;2.72;;;;;;;-144.73;100.00;54407.69;4969688;28;20035;-73
2023/08/22 03:57:50;;;;;;;8.05;2.88;;;;;;;-144.73;100.00;54376.91;4964932;28;20113;-73
2023/08/22 04:00:16;;;;;;;13.95;2.88;;;;;;;-144.73;100.00;54381.00;4969653;28;20118;-73
2023/08/22 04:02:41;;;;;;;7.18;2.70;;;;;;;-144.73;100.00;54362.53;4983403;28;20031;-73
2023/08/22 04:05:07;;;;;;;9.70;2.65;;;;;;;-144.73;100.00;54407.69;4978859;28;20037;-74
2023/08/22 04:07:32;;;;;;;5.88;2.47;;;;;;;-144.73;100.00;54346.13;4984993;28;20572;-73
2023/08/22 04:09:57;;;;;;;4.53;2.45;;;;;;;-144.73;100.00;54366.66;4984250;28;20034;-73
2023/08/22 04:12:23;;;;;;;6.18;2.63;;;;;;;-144.73;100.00;54356.38;4976931;28;20026;-73
2023/08/22 04:14:49;;;;;;;6.63;2.80;;;;;;;-144.73;100.00;54395.38;4978808;28;20031;-74
2023/08/22 04:17:14;;;;;;;6.97;2.85;;;;;;;-144.73;100.00;54395.38;4985325;28;20042;-74
2023/08/22 04:19:42;;;;;;;8.65;2.10;;;;;;;-144.73;100.00;54370.75;4985661;28;20046;-73
2023/08/22 04:22:08;;;;;;;7.10;2.70;;;;;;;-144.73;100.00;54374.84;4977468;28;20505;-73
2023/08/22 04:24:33;;;;;;;8.98;2.42;;;;;;;-144.73;100.00;54370.75;4985113;28;20035;-73
2023/08/22 04:26:58;;;;;;;15.30;3.30;;;;;;;-144.73;100.00;54374.84;4978683;28;20033;-72
2023/08/22 04:29:24;;;;;;;6.63;2.65;;;;;;;-144.73;100.00;54350.22;4982750;28;20038;-74
2023/08/22 04:31:49;;;;;;;8.18;2.97;;;;;;;-144.73;100.00;54358.44;4973928;28;20023;-73
2023/08/22 04:34:14;;;;;;;7.85;2.83;;;;;;;-144.73;100.00;54378.97;4973262;28;20035;-73
2023/08/22 04:36:40;;;;;;;15.40;2.70;;;;;;;-144.73;100.00;54342.03;4974905;28;20031;-73
2023/08/22 04:39:06;;;;;;;7.57;2.78;;;;;;;-144.73;100.00;54378.97;4972258;28;20027;-74
2023/08/22 04:41:32;;;;;;;6.10;2.92;;;;;;;-144.73;100.00;54383.06;4968266;28;20045;-73
2023/08/22 04:43:57;;;;;;;9.48;2.83;;;;;;;-144.73;100.00;54391.28;4968813;28;20023;-73
2023/08/22 04:46:22;;;;;;;7.35;2.78;;;;;;;-144.73;100.00;54344.06;4972820;28;20043;-73
2023/08/22 04:48:48;;;;;;;6.40;2.30;;;;;;;-144.73;100.00;54352.28;4973070;28;20117;-73
2023/08/22 04:51:13;;;;;;;10.95;3.20;;;;;;;-144.73;100.00;54362.53;4966031;28;20035;-74
2023/08/22 04:53:38;;;;;;;10.73;6.05;;;;;;;-144.73;100.00;54387.19;4968921;28;20062;-73
2023/08/22 04:56:04;;;;;;;10.88;3.42;;;;;;;-144.73;100.00;54354.34;4967860;28;20076;-73
2023/08/22 04:58:29;;;;;;;16.80;2.90;;;;;;;-144.73;100.00;54383.06;4967046;28;20031;-73
2023/08/22 05:00:54;;;;;;;16.00;3.25;;;;;;;-144.73;100.00;54354.34;4970294;28;20027;-73
2023/08/22 05:03:21;;;;;;;6.03;2.50;;;;;;;-144.73;100.00;54383.06;4975900;28;20034;-74
2023/08/22 05:05:47;;;;;;;12.98;3.13;;;;;;;-144.73;100.00;54354.34;4992442;28;20588;-73
2023/08/22 05:08:12;;;;;;;11.10;2.95;;;;;;;-144.73;100.00;54387.19;4988968;28;20058;-73
2023/08/22 05:10:38;;;;;;;6.93;2.70;;;;;;;-144.73;100.00;54424.13;4982817;28;20027;-73
2023/08/22 05:13:03;;;;;;;13.52;2.70;;;;;;;-144.73;100.00;54378.97;4986673;28;20461;-73
2023/08/22 05:15:28;;;;;;;7.63;2.50;;;;;;;-144.73;100.00;54370.75;4979127;28;20498;-73
2023/08/22 05:17:54;;;;;;;7.25;2.65;;;;;;;-144.73;100.00;54370.75;4975914;28;20026;-74
2023/08/22 05:20:20;;;;;;;12.13;3.28;;;;;;;-144.73;100.00;54360.50;4977771;28;20031;-73
2023/08/22 05:22:45;;;;;;;12.70;2.75;;;;;;;-144.73;100.00;54358.44;4972572;28;20019;-72
2023/08/22 05:25:11;;;;;;;11.65;2.45;;;;;;;-144.73;100.00;54366.66;4972387;28;20031;-71
2023/08/22 05:27:36;;;;;;;13.07;2.83;;;;;;;-144.73;100.00;54358.44;4969441;28;20033;-73
2023/08/22 05:30:02;;;;;;;9.52;2.60;;;;;;;-144.73;100.00;54364.59;4968079;28;20030;-72
2023/08/22 05:32:28;;;;;;;10.60;3.00;;;;;;;-144.73;100.00;54354.34;4983982;28;20054;-73
2023/08/22 05:34:53;;;;;;;9.90;4.20;;;;;;;-144.73;100.00;54362.53;4982751;28;20046;-73
2023/08/22 05:37:19;;;;;;;12.50;2.90;;;;;;;-144.73;100.00;54346.13;4988227;28;20114;-74
2023/08/22 05:39:44;;;;;;;11.00;3.45;;;;;;;-144.73;100.00;54391.28;4980969;28;20061;-73
2023/08/22 05:42:09;;;;;;;11.55;3.28;;;;;;;-144.73;100.00;54362.53;4975708;28;20054;-73
2023/08/22 05:44:35;;;;;;;12.80;2.97;;;;;;;-144.73;100.00;54337.91;4976362;28;20031;-73
2023/08/22 05:47:02;;;;;;;13.70;2.88;;;;;;;-144.73;100.00;54364.59;4983801;28;20060;-73
2023/08/22 05:49:27;;;;;;;10.13;3.03;;;;;;;-144.73;100.00;54378.97;4984590;28;20100;-73
2023/08/22 05:52:04;;;;;;;8.50;2.63;;;;;;;-144.73;100.00;54393.34;4981211;28;20014;-73
2023/08/22 05:54:31;;;;;;;9.27;2.80;;;;;;;-144.73;100.00;54358.44;4980822;28;20027;-74
2023/08/22 05:56:56;;;;;;;13.27;3.30;;;;;;;-144.73;100.00;54374.84;4982791;28;20034;-73
2023/08/22 05:59:23;;;;;;;13.75;3.38;;;;;;;-144.73;100.00;54383.06;4975521;28;20406;-73
2023/08/22 06:01:49;;;;;;;8.70;3.22;;;;;;;-144.73;100.00;54350.22;4982372;28;20014;-73
2023/08/22 06:04:16;;;;;;;10.77;3.65;;;;;;;-144.73;100.00;54395.38;4972198;28;20025;-73
2023/08/22 06:06:41;;;;;;;9.57;3.10;;;;;;;-144.73;100.00;54362.53;4982126;28;20031;-73
2023/08/22 06:09:07;;;;;;;12.00;3.63;;;;;;;-144.73;100.00;54374.84;4976353;28;20015;-73
2023/08/22 06:11:32;;;;;;;12.77;3.72;;;;;;;-144.73;100.00;54352.28;4971488;28;20042;-74
2023/08/22 06:13:57;;;;;;;10.57;3.30;;;;;;;-144.73;100.00;54356.38;4965775;28;20113;-73
2023/08/22 06:16:23;;;;;;;11.82;3.13;;;;;;;-144.73;100.00;54325.59;4967216;28;20570;-73
2023/08/22 06:18:48;;;;;;;8.30;3.03;;;;;;;-144.73;100.00;54346.13;4971281;28;20023;-73
2023/08/22 06:21:13;;;;;;;13.18;3.47;;;;;;;-144.73;100.00;54395.38;4974333;28;20047;-72
2023/08/22 06:23:39;;;;;;;11.32;3.40;;;;;;;-144.73;100.00;54378.97;4986971;28;20030;-71
2023/08/22 06:26:04;;;;;;;13.30;3.50;;;;;;;-144.73;100.00;54346.13;4980795;28;20039;-72
2023/08/22 06:28:30;;;;;;;8.45;3.35;;;;;;;-144.73;100.00;54378.97;4979654;28;20061;-72
2023/08/22 06:31:01;;;;;;;13.07;2.72;;;;;;;-144.73;100.00;54368.69;4978222;28;20047;-72
2023/08/22 06:33:26;;;;;;;7.70;2.80;;;;;;;-144.73;100.00;54346.13;4975954;28;20033;-72
2023/08/22 06:35:51;;;;;;;9.13;3.53;;;;;;;-144.73;100.00;54350.22;4978000;28;20113;-72
2023/08/22 06:38:17;;;;;;;7.70;2.65;;;;;;;-144.73;100.00;54346.13;4975664;28;20115;-72
2023/08/22 06:40:42;;;;;;;20.00;10.23;;;;;;;-144.73;100.00;54378.97;4979232;28;20057;-75
2023/08/22 06:43:07;;;;;;;14.90;6.05;;;;;;;-144.73;100.00;54370.75;4979530;28;20022;-72
2023/08/22 06:45:33;;;;;;;10.02;3.47;;;;;;;-144.73;100.00;54374.84;4977778;28;20042;-72
2023/08/22 06:47:58;;;;;;;20.40;3.17;;;;;;;-144.73;100.00;54376.91;4982705;28;20022;-73
2023/08/22 06:50:23;;;;;;;7.07;3.03;;;;;;;-144.73;100.00;54362.53;4978426;28;20049;-73
2023/08/22 06:52:49;;;;;;;11.25;3.30;;;;;;;-144.73;100.00;54411.81;4978956;28;20158;-73
2023/08/22 06:55:14;;;;;;;8.88;3.22;;;;;;;-144.73;100.00;54391.28;4981155;28;20046;-73
2023/08/22 06:57:39;;;;;;;10.40;3.10;;;;;;;-144.73;100.00;54346.13;4976378;28;20060;-73
2023/08/22 07:00:14;;;;;;;19.45;3.25;;;;;;;-144.73;100.00;54358.44;4978878;28;20082;-74
2023/08/22 07:02:41;;;;;;;14.13;3.40;;;;;;;-144.73;100.00;54358.44;4979598;28;20114;-73
2023/08/22 07:05:08;;;;;;;13.80;3.00;;;;;;;-144.73;100.00;54356.38;4987596;28;20072;-73
2023/08/22 07:07:33;;;;;;;12.75;3.10;;;;;;;-144.73;100.00;54370.75;4978516;28;20094;-74
2023/08/22 07:09:59;;;;;;;16.30;3.35;;;;;;;-144.73;100.00;54346.13;4974623;28;20138;-73
2023/08/22 07:12:24;;;;;;;19.95;3.40;;;;;;;-144.73;100.00;54354.34;4978633;28;20077;-72
2023/08/22 07:14:50;;;;;;;7.03;2.72;;;;;;;-144.73;100.00;54346.13;4975748;28;20035;-73
2023/08/22 07:17:15;;;;;;;14.63;2.50;;;;;;;-144.73;100.00;54366.66;4977478;28;20045;-73
2023/08/22 07:19:40;;;;;;;10.48;2.50;;;;;;;-144.73;100.00;54374.84;4975531;28;20030;-74
2023/08/22 07:22:06;;;;;;;15.45;3.13;;;;;;;-144.73;100.00;54329.72;4979958;28;20031;-73
2023/08/22 07:24:31;;;;;;;11.30;2.47;;;;;;;-144.73;100.00;54329.72;4975033;28;20031;-73
2023/08/22 07:27:02;;;;;;;11.40;2.17;;;;;;;-144.73;100.00;54325.59;4978179;28;20030;-73
2023/08/22 07:29:28;;;;;;;8.90;2.67;;;;;;;-144.73;100.00;54354.34;4981032;28;20034;-73
2023/08/22 07:31:58;;;;;;;10.23;3.35;;;;;;;-144.73;100.00;54358.44;4971117;28;20125;-73
2023/08/22 07:34:23;;;;;;;13.73;3.28;;;;;;;-144.73;100.00;54305.06;4965484;28;20069;-73
2023/08/22 07:36:49;;;;;;;14.40;4.35;;;;;;;-144.73;100.00;54364.59;4964030;28;20058;-73
2023/08/22 07:39:15;;;;;;;8.00;2.80;;;;;;;-144.73;96.07;54325.59;4969918;28;20031;-73
2023/08/22 07:41:41;;;;;;;9.63;2.42;;;;;;;-144.73;94.81;54327.66;4978392;28;20030;-73
2023/08/22 07:44:06;;;;;;;12.90;2.92;;;;;;;-144.73;91.46;54329.72;4979703;28;20034;-74
2023/08/22 07:46:32;;;;;;;11.20;2.58;;;;;;;-144.73;92.04;54313.28;4973451;28;20098;-74
2023/08/22 07:48:58;;;;;;;9.95;2.50;;;;;;;-144.73;91.02;54337.91;4977081;28;20018;-74
2023/08/22 07:51:23;;;;;;;15.93;2.38;;;;;;;-144.73;89.02;54350.22;4972646;28;20038;-74
2023/08/22 07:53:49;;;;;;;9.65;2.20;;;;;;;-144.73;88.82;54300.97;4974502;28;20130;-74
2023/08/22 07:56:14;;;;;;;13.10;3.40;;;;;;;-144.73;86.64;54290.72;4982244;28;20034;-73
2023/08/22 07:58:39;;;;;;;6.03;2.03;;;;;;;-144.73;85.37;54321.50;4974424;28;20029;-73
2023/08/22 08:01:05;;;;;;;15.32;2.70;;;;;;;-144.73;85.02;54346.13;4971856;28;20089;-74
2023/08/22 08:03:30;;;;;;;9.38;2.58;;;;;;;-144.73;86.95;54319.44;4972159;28;20026;-74
2023/08/22 08:05:56;;;;;;;12.65;3.00;;;;;;;-144.73;86.23;54317.38;4977349;28;20049;-75
2023/08/22 08:08:21;;;;;;;9.88;2.35;;;;;;;-144.73;86.30;54362.53;4971454;28;20066;-74
2023/08/22 08:10:46;;;;;;;10.05;2.67;;;;;;;-144.73;87.03;54325.59;4970797;28;20051;-74
2023/08/22 08:13:13;;;;;;;9.23;2.35;;;;;;;-144.73;87.83;54276.34;4971479;28;20026;-74
2023/08/22 08:15:38;;;;;;;15.05;2.13;;;;;;;-144.73;82.45;54292.75;4970640;28;20041;-75
2023/08/22 08:18:04;;;;;;;10.43;2.90;;;;;;;-144.73;83.26;54346.13;4972443;28;20105;-75
2023/08/22 08:20:30;;;;;;;11.38;2.88;;;;;;;-144.73;84.51;54342.03;4970376;28;20070;-74
2023/08/22 08:22:55;;;;;;;6.50;2.00;;;;;;;-144.73;84.21;54309.19;4970854;28;20019;-75
2023/08/22 08:25:20;;;;;;;9.02;2.58;;;;;;;-144.73;84.97;54300.97;4970742;28;20039;-75
2023/08/22 08:27:52;;;;;;;13.85;2.30;;;;;;;-144.73;84.65;54309.19;4972493;28;20019;-75
2023/08/22 08:30:18;;;;;;;17.17;2.50;;;;;;;-144.73;87.24;54317.38;4970624;28;20031;-75
2023/08/22 08:32:44;;;;;;;10.45;2.10;;;;;;;-144.73;87.81;54296.88;4971132;28;20050;-75
2023/08/22 08:35:09;;;;;;;10.52;2.03;;;;;;;-144.73;87.85;54276.34;4970389;28;20066;-75
2023/08/22 08:37:35;;;;;;;11.40;2.55;;;;;;;-144.73;83.90;54284.56;4970917;28;20037;-74
2023/08/22 08:40:00;;;;;;;8.48;2.65;;;;;;;-144.73;84.60;54300.97;4970219;28;20544;-75
2023/08/22 08:42:26;;;;;;;15.80;3.08;;;;;;;-144.73;82.56;54288.66;4970489;28;20026;-75
2023/08/22 08:44:51;;;;;;;9.32;2.47;;;;;;;-144.73;81.16;54325.59;4966910;28;20126;-75
2023/08/22 08:47:17;;;;;;;11.65;2.15;;;;;;;-144.73;81.29;54307.13;4967879;28;20031;-74
2023/08/22 08:49:42;;;;;;;7.80;2.03;;;;;;;-144.73;80.28;54300.97;4967082;28;20062;-75
2023/08/22 08:52:11;;;;;;;10.00;2.50;;;;;;;-144.73;81.87;54276.34;4968307;28;20043;-75
2023/08/22 08:54:36;;;;;;;6.47;2.50;;;;;;;-144.73;80.97;54335.88;4970068;28;20031;-75
2023/08/22 08:57:05;;;;;;;7.65;2.00;;;;;;;-144.73;81.97;54333.81;4970905;28;20026;-75
2023/08/22 08:59:30;;;;;;;11.90;2.25;;;;;;;-144.73;81.50;54276.34;4970726;28;20490;-75
2023/08/22 09:01:56;;;;;;;9.60;2.35;;;;;;;-144.73;80.21;54311.22;4971646;28;20027;-75
2023/08/22 09:04:22;;;;;;;11.18;2.45;;;;;;;-144.73;81.28;54313.28;4970894;28;20031;-75
2023/08/22 09:06:48;;;;;;;12.43;3.17;;;;;;;-144.73;82.40;54292.75;4970403;28;20137;-75
2023/08/22 09:09:14;;;;;;;7.82;2.50;;;;;;;-144.73;77.77;54286.59;4970086;28;20105;-75
2023/08/22 09:11:47;;;;;;;12.98;3.58;;;;;;;-144.73;80.34;54321.50;4971223;28;20053;-75
2023/08/22 09:14:17;;;;;;;9.55;2.17;;;;;;;-144.73;77.21;54333.81;4969575;28;20034;-75
2023/08/22 09:16:43;;;;;;;6.38;2.60;;;;;;;-144.73;75.35;54259.91;4970423;28;20018;-74
2023/08/22 09:19:11;;;;;;;10.68;3.03;;;;;;;-144.73;74.91;54247.59;4970701;28;20123;-75
2023/08/22 09:21:36;;;;;;;13.90;2.72;;;;;;;-144.73;68.49;54255.81;4970261;28;20041;-75
2023/08/22 09:24:09;;;;;;;13.93;2.97;;;;;;;-144.73;68.75;54300.97;4970725;28;20486;-75
2023/08/22 09:26:36;;;;;;;11.27;2.60;;;;;;;-144.73;69.35;54321.50;4970822;28;20042;-75
2023/08/22 09:29:06;;;;;;;6.47;2.58;;;;;;;-144.73;71.22;54300.97;4970105;28;20042;-74
2023/08/22 09:31:34;;;;;;;5.53;2.65;;;;;;;-144.73;68.39;54317.38;4989845;28;20037;-75
2023/08/22 09:34:06;;;;;;;11.35;2.92;;;;;;;-144.73;69.12;54305.06;4991399;28;20018;-75
2023/08/22 09:36:31;;;;;;;15.82;2.53;;;;;;;-144.73;67.74;54288.66;4990464;28;20038;-75
2023/08/22 09:38:57;;;;;;;15.07;2.92;;;;;;;-144.73;70.62;54290.72;4989915;28;20033;-75
2023/08/22 09:41:25;;;;;;;6.38;2.20;;;;;;;-144.73;65.73;54276.34;4989389;28;20509;-75
2023/08/22 09:44:00;;;;;;;10.10;2.38;;;;;;;-144.73;68.28;54284.56;4989818;28;20030;-75
2023/08/22 09:46:26;;;;;;;10.73;2.83;;;;;;;-144.73;69.44;54300.97;4988837;28;20121;-75
2023/08/22 09:48:55;;;;;;;10.75;2.13;;;;;;;-144.73;68.17;54307.13;4990780;28;20034;-75
2023/08/22 09:51:20;;;;;;;14.68;3.17;;;;;;;-144.73;68.89;54337.91;4991269;28;20069;-75
2023/08/22 09:53:51;;;;;;;14.30;2.88;;;;;;;-144.73;68.64;54276.34;4989727;28;20053;-75
2023/08/22 09:56:18;;;;;;;4.85;2.08;;;;;;;-144.73;71.15;54321.50;4990462;28;20035;-74
2023/08/22 09:58:44;;;;;;;10.98;2.83;;;;;;;-144.73;70.37;54264.03;4989109;28;20097;-74
2023/08/22 10:01:13;;;;;;;8.15;2.10;;;;;;;-144.73;71.46;54292.75;4989372;28;20038;-74
2023/08/22 10:03:39;;;;;;;11.32;2.58;;;;;;;-144.73;72.09;54280.44;4989586;28;20026;-74
2023/08/22 10:06:11;;;;;;;6.70;1.90;;;;;;;-144.73;72.65;54300.97;4988973;28;20085;-76
2023/08/22 10:08:37;;;;;;;13.23;1.95;;;;;;;-144.73;73.29;54313.28;4993446;28;20022;-76
2023/08/22 10:11:06;;;;;;;11.75;2.30;;;;;;;-144.73;72.07;54239.41;4988969;28;20081;-74
2023/08/22 10:13:33;;;;;;;8.57;2.05;;;;;;;-144.73;74.72;54292.75;4988890;28;20034;-75
2023/08/22 10:15:58;;;;;;;8.52;2.20;;;;;;;-144.73;71.45;54292.75;4990461;28;20034;-75
2023/08/22 10:18:25;;;;;;;8.27;2.55;;;;;;;-144.73;72.52;54294.81;4989762;28;20026;-74
2023/08/22 10:20:53;;;;;;;10.77;1.88;;;;;;;-144.73;68.72;54296.88;4990118;28;20070;-75
2023/08/22 10:23:44;;;;;;;4.78;1.80;;;;;;;-144.73;65.04;54276.34;4989896;28;20042;-75
2023/08/22 10:26:09;;;;;;;12.18;2.47;;;;;;;-144.73;66.37;54321.50;4988487;28;20125;-75
2023/08/22 10:28:42;;;;;;;7.43;1.98;;;;;;;-144.73;66.53;54276.34;4989454;28;20113;-75
2023/08/22 10:31:07;;;;;;;11.80;2.42;;;;;;;-144.73;68.44;54342.03;4988383;28;20054;-75
2023/08/22 10:33:33;;;;;;;14.63;2.58;;;;;;;-144.73;67.24;54300.97;4988507;28;20022;-74
2023/08/22 10:36:17;;;;;;;9.20;2.60;;;;;;;-144.73;66.14;54284.56;4988751;28;20516;-75
2023/08/22 10:39:00;;;;;;;13.63;2.63;;;;;;;-144.73;67.13;54303.03;4988799;28;20034;-75
2023/08/22 10:41:56;;;;;;;11.65;2.08;;;;;;;-144.73;66.71;54239.41;4988209;28;20034;-75
2023/08/22 10:44:26;;;;;;;8.45;2.28;;;;;;;-144.73;66.74;54278.41;4988340;28;20093;-74
2023/08/22 10:47:06;;;;;;;11.60;2.35;;;;;;;-144.73;66.68;54292.75;4988278;28;20018;-74
2023/08/22 10:49:33;;;;;;;11.32;2.78;;;;;;;-144.73;66.10;54222.97;4987925;28;20049;-74
2023/08/22 10:52:10;;;;;;;7.15;2.50;;;;;;;-144.73;67.78;54251.72;4988748;28;20014;-74
2023/08/22 10:55:03;;;;;;;8.77;2.03;;;;;;;-144.73;65.81;54294.81;4989337;28;20110;-74
2023/08/22 10:57:43;;;;;;;11.40;2.47;;;;;;;-144.73;65.86;54247.59;4988439;28;20026;-74
2023/08/22 11:00:18;;;;;;;17.10;2.53;;;;;;;-144.73;65.07;54255.81;4987594;28;20042;-74
2023/08/22 11:02:43;;;;;;;7.47;1.88;;;;;;;-144.73;64.36;54342.03;4988209;28;20053;-75
2023/08/22 11:05:11;;;;;;;8.40;3.20;;;;;;;-144.73;63.92;54268.13;4988426;28;20513;-75